Marshfield, Missouri
Current Conditions -  °F | °C
As of 5:52 AM on Thursday 18 Dec 2014 (Local Time) from KSGF Reporting Station
Haze Haze  
Wind Chill: 28°   Ceiling: 500
Heat Index: 33°   Visibility: 4mi
Dew Point: 32°   Wind: 6mph
Humidity: 96%   Direction: 120°ESE
Pressure: 30.16"   Gusts: NA
Location:  37.34°N, 92.91°W
Report Text: KSGF 181152Z 12005KT 4SM BR OVC005 01/00 A3016 RMK AO2 UPE03 SLP223 P0001 60003 70037 T00060000 10011 20006 55000
Loading
Personal Weather Stations






























Interactive Weather Map New forecast layout! Learn more

10-Day Weather Forecast

Advertisements
Track Severe Weather on mobile